Time;durP1;ratioP1;P1;durP2;ratioP2;P2;SDS_P1;SDS_P2;PMS_P1;PMS_P2;Temp;Humidity;BMP_temperature;BMP_pressure;BME280_temperature;BME280_humidity;BME280_pressure;Samples;Min_cycle;Max_cycle;Signal;HPM_P1;HPM_P2
2022/06/05 00:00:14;;;;;;;12.03;10.93;;;;;;;24.16;78.59;99510.44;5071873;28;20198;-56
2022/06/05 00:03:05;;;;;;;13.73;10.97;;;;;;;24.18;78.62;99506.00;5067962;28;20212;-56
2022/06/05 00:05:37;;;;;;;12.02;10.55;;;;;;;24.18;78.81;99504.22;5052130;28;20520;-56
2022/06/05 00:08:13;;;;;;;12.30;9.97;;;;;;;24.18;78.48;99517.34;5051847;28;20202;-57
2022/06/05 00:10:48;;;;;;;12.23;11.00;;;;;;;24.11;78.42;99501.91;5072308;28;20199;-57
2022/06/05 00:13:22;;;;;;;11.80;10.00;;;;;;;24.09;78.64;99504.56;5072186;28;20195;-57
2022/06/05 00:15:48;;;;;;;12.17;10.03;;;;;;;24.07;78.88;99512.47;5072033;28;20202;-57
2022/06/05 00:18:17;;;;;;;11.27;10.10;;;;;;;24.03;78.64;99513.50;5071942;28;20196;-56
2022/06/05 00:20:45;;;;;;;10.63;9.63;;;;;;;24.04;78.78;99523.09;5072213;28;20190;-56
2022/06/05 00:23:13;;;;;;;13.77;9.98;;;;;;;23.99;79.15;99524.19;5072080;28;20265;-56
2022/06/05 00:25:48;;;;;;;11.50;10.40;;;;;;;23.94;78.88;99521.75;5071649;28;20191;-56
2022/06/05 00:28:23;;;;;;;11.00;9.77;;;;;;;23.95;78.85;99526.06;5071798;28;20195;-57
2022/06/05 00:30:57;;;;;;;13.47;10.00;;;;;;;23.92;78.68;99525.34;5071633;28;20693;-56
2022/06/05 00:33:32;;;;;;;15.48;10.60;;;;;;;23.94;78.39;99518.25;5069195;28;20430;-56
2022/06/05 00:36:07;;;;;;;11.57;10.45;;;;;;;23.88;78.78;99521.09;5071875;28;20198;-56
2022/06/05 00:38:41;;;;;;;16.83;11.53;;;;;;;23.84;78.12;99525.59;5071553;28;20191;-56
2022/06/05 00:41:43;;;;;;;12.93;10.73;;;;;;;23.88;78.09;99526.34;5071206;28;20685;-56
2022/06/05 00:44:14;;;;;;;13.17;10.87;;;;;;;23.86;77.49;99522.94;5054900;28;20203;-56
2022/06/05 00:46:43;;;;;;;12.90;11.60;;;;;;;23.82;77.88;99522.19;5071480;28;20196;-56
2022/06/05 00:49:12;;;;;;;12.43;11.33;;;;;;;23.74;77.52;99512.88;5071439;28;20670;-56
2022/06/05 00:51:39;;;;;;;12.53;11.40;;;;;;;23.58;77.29;99509.13;5071516;28;20215;-56
2022/06/05 00:54:06;;;;;;;12.57;11.27;;;;;;;23.65;77.55;99515.88;5071355;28;20223;-56
2022/06/05 00:56:33;;;;;;;11.97;10.77;;;;;;;23.61;77.06;99511.63;5057358;28;20198;-56
2022/06/05 00:59:00;;;;;;;15.67;12.20;;;;;;;23.61;77.28;99503.75;5071416;28;20203;-56
2022/06/05 01:01:28;;;;;;;12.07;10.77;;;;;;;23.49;77.37;99497.19;5071113;28;20200;-56
2022/06/05 01:04:00;;;;;;;12.30;11.10;;;;;;;23.47;78.10;99502.50;5070987;28;20662;-56
2022/06/05 01:06:29;;;;;;;16.17;10.93;;;;;;;23.36;78.73;99502.00;5070720;28;20673;-56
2022/06/05 01:08:55;;;;;;;14.27;10.97;;;;;;;23.38;78.26;99502.81;5070681;28;20227;-57
2022/06/05 01:11:33;;;;;;;13.60;10.83;;;;;;;23.39;78.42;99506.31;5071221;28;20199;-56
2022/06/05 01:14:10;;;;;;;13.27;11.80;;;;;;;23.40;78.50;99508.03;5071105;28;20572;-56
2022/06/05 01:16:46;;;;;;;11.30;10.27;;;;;;;23.35;78.80;99505.50;5069440;28;20214;-56
2022/06/05 01:19:29;;;;;;;14.23;10.80;;;;;;;23.35;78.37;99510.75;5069415;28;20211;-56
2022/06/05 01:22:26;;;;;;;13.00;11.20;;;;;;;23.30;78.51;99507.44;5067518;28;20576;-56
2022/06/05 01:25:08;;;;;;;12.98;11.68;;;;;;;23.33;78.61;99506.47;5067415;28;20441;-64
2022/06/05 01:27:40;;;;;;;11.60;10.40;;;;;;;23.40;77.94;99508.03;5068160;28;20658;-64
2022/06/05 01:30:12;;;;;;;12.40;11.13;;;;;;;23.34;77.48;99508.19;5070268;28;20613;-64
2022/06/05 01:32:48;;;;;;;12.57;11.37;;;;;;;23.21;76.65;99509.56;5070688;28;20188;-63
2022/06/05 01:35:21;;;;;;;12.20;11.00;;;;;;;23.03;77.03;99513.63;5068744;28;20191;-63
2022/06/05 01:37:54;;;;;;;17.13;11.60;;;;;;;22.90;78.31;99520.22;5068328;28;20195;-63
2022/06/05 01:40:25;;;;;;;13.63;12.27;;;;;;;22.88;78.66;99525.50;5070996;28;20195;-62
2022/06/05 01:42:59;;;;;;;13.37;11.17;;;;;;;22.82;78.25;99525.72;5070645;28;20219;-63
2022/06/05 01:45:33;;;;;;;12.33;11.13;;;;;;;22.72;78.65;99533.91;5070544;28;20253;-63
2022/06/05 01:48:03;;;;;;;12.63;11.20;;;;;;;22.70;78.58;99531.34;5070477;28;20686;-63
2022/06/05 01:50:38;;;;;;;13.07;11.48;;;;;;;22.77;79.25;99524.16;5069813;28;20893;-63
2022/06/05 01:53:09;;;;;;;12.93;11.50;;;;;;;22.83;78.96;99518.69;5070255;28;20539;-62
2022/06/05 01:55:42;;;;;;;12.17;10.80;;;;;;;22.83;78.71;99521.31;5070609;28;20700;-62
2022/06/05 01:58:14;;;;;;;12.63;10.57;;;;;;;22.79;78.78;99517.94;5070278;28;20195;-62
2022/06/05 02:00:42;;;;;;;11.87;10.77;;;;;;;22.83;79.12;99516.94;5070906;28;20195;-62
2022/06/05 02:03:13;;;;;;;13.63;11.10;;;;;;;22.83;79.05;99524.78;5069319;28;20207;-63
2022/06/05 02:05:45;;;;;;;13.50;11.60;;;;;;;22.85;79.01;99525.59;5070397;28;20249;-64
2022/06/05 02:08:15;;;;;;;13.05;11.75;;;;;;;22.86;78.05;99532.56;5069976;28;20461;-62
2022/06/05 02:10:48;;;;;;;17.87;12.43;;;;;;;22.81;76.75;99525.75;5070248;28;20666;-62
2022/06/05 02:13:19;;;;;;;16.40;10.97;;;;;;;22.73;77.25;99522.53;5070877;28;20194;-62
2022/06/05 02:15:47;;;;;;;12.87;11.07;;;;;;;22.64;77.15;99521.06;5069936;28;20684;-62
2022/06/05 02:18:14;;;;;;;15.67;10.97;;;;;;;22.59;77.37;99516.84;5070320;28;20278;-62
2022/06/05 02:20:42;;;;;;;15.40;10.50;;;;;;;22.52;78.17;99520.56;5070200;28;20192;-64
2022/06/05 02:23:15;;;;;;;12.03;10.70;;;;;;;22.49;78.60;99518.91;5070069;28;20222;-63
2022/06/05 02:25:42;;;;;;;12.97;11.43;;;;;;;22.50;78.84;99528.44;5069991;28;20666;-64
2022/06/05 02:28:12;;;;;;;11.03;9.97;;;;;;;22.49;78.96;99518.03;5070308;28;20191;-64
2022/06/05 02:30:49;;;;;;;15.00;11.83;;;;;;;22.45;79.41;99511.19;5069872;28;20195;-64
2022/06/05 02:33:30;;;;;;;12.35;11.25;;;;;;;22.47;79.81;99512.00;5069121;28;20843;-64
2022/06/05 02:36:06;;;;;;;26.37;11.50;;;;;;;22.54;79.49;99510.91;5070224;28;20187;-64
2022/06/05 02:38:44;;;;;;;13.00;11.73;;;;;;;22.47;79.83;99491.88;5070214;28;20262;-64
2022/06/05 02:41:19;;;;;;;13.40;11.23;;;;;;;22.52;80.03;99500.47;5069798;28;20195;-64
2022/06/05 02:46:42;;;;;;;12.97;11.77;;;;;;;22.57;80.65;99495.94;5067139;28;20199;-64
2022/06/05 02:49:17;;;;;;;14.20;12.10;;;;;;;22.55;81.00;99513.44;5069602;28;20202;-63
2022/06/05 02:51:46;;;;;;;13.98;12.23;;;;;;;22.61;81.23;99523.72;5069530;28;20960;-63
2022/06/05 02:54:20;;;;;;;13.67;12.03;;;;;;;22.26;81.15;99458.53;5070279;28;20188;-62
2022/06/05 02:56:47;;;;;;;13.80;11.63;;;;;;;22.65;80.90;99520.16;5069745;28;20227;-64
2022/06/05 02:59:14;;;;;;;12.53;11.13;;;;;;;22.65;81.40;99522.78;5070166;28;20328;-62
2022/06/05 03:04:26;;;;;;;11.77;10.67;;;;;;;22.74;81.20;99522.47;5071555;28;20214;-64
2022/06/05 03:06:53;;;;;;;14.97;11.77;;;;;;;22.81;81.19;99528.38;5073542;28;20207;-62
2022/06/05 03:09:20;;;;;;;16.17;11.60;;;;;;;22.82;81.11;99530.94;5073501;28;20234;-63
2022/06/05 03:11:47;;;;;;;13.00;11.30;;;;;;;22.91;80.48;99524.53;5073807;28;20199;-62
2022/06/05 03:14:14;;;;;;;14.07;12.63;;;;;;;22.90;80.67;99520.22;5073654;28;20266;-63
2022/06/05 03:16:42;;;;;;;13.13;11.73;;;;;;;22.89;81.16;99511.50;5073530;28;20196;-62
2022/06/05 03:19:09;;;;;;;13.75;12.35;;;;;;;23.01;81.34;99509.38;5072866;28;20444;-63
2022/06/05 03:21:37;;;;;;;17.83;11.87;;;;;;;23.05;80.84;99510.97;5073529;28;20196;-63
2022/06/05 03:24:04;;;;;;;15.87;13.50;;;;;;;23.05;80.97;99522.31;5073567;28;20219;-62
2022/06/05 03:26:31;;;;;;;14.07;12.73;;;;;;;23.08;80.58;99527.44;5073038;28;20202;-62
2022/06/05 03:28:58;;;;;;;15.43;13.93;;;;;;;23.12;81.26;99534.31;5073144;28;20196;-63
2022/06/05 03:31:25;;;;;;;14.40;12.93;;;;;;;23.22;80.86;99546.19;5073125;28;20187;-56
2022/06/05 03:33:53;;;;;;;12.60;11.40;;;;;;;23.29;79.55;99531.13;5073041;28;20203;-56
2022/06/05 03:36:20;;;;;;;12.57;11.27;;;;;;;23.27;78.91;99522.41;5073029;28;20853;-56
2022/06/05 03:38:47;;;;;;;12.07;10.53;;;;;;;23.38;77.95;99517.69;5072901;28;20685;-56
2022/06/05 03:41:15;;;;;;;12.07;10.87;;;;;;;23.52;76.72;99525.94;5072998;28;20654;-56
2022/06/05 03:43:42;;;;;;;14.17;10.87;;;;;;;23.55;76.53;99512.72;5072892;28;20227;-57
2022/06/05 03:46:12;;;;;;;11.57;10.47;;;;;;;23.71;75.91;99505.13;5069638;28;20296;-55
2022/06/05 03:48:39;;;;;;;11.43;10.43;;;;;;;23.85;75.27;99506.34;5067745;28;20187;-56
2022/06/05 03:51:09;;;;;;;11.63;10.43;;;;;;;23.91;74.55;99508.72;5072205;28;20283;-56
2022/06/05 03:53:36;;;;;;;17.03;10.47;;;;;;;23.91;74.13;99505.25;5072521;28;20184;-57
2022/06/05 03:56:07;;;;;;;11.67;10.57;;;;;;;23.94;73.31;99520.88;5072292;28;20196;-56
2022/06/05 03:58:34;;;;;;;10.70;9.70;;;;;;;23.89;73.18;99507.09;5069716;28;20192;-56
2022/06/05 04:01:00;;;;;;;11.73;10.30;;;;;;;23.81;73.48;99504.75;5069755;28;20195;-56
2022/06/05 04:03:27;;;;;;;12.32;10.95;;;;;;;23.78;73.30;99504.00;5071949;28;20453;-57
2022/06/05 04:05:54;;;;;;;13.37;10.10;;;;;;;23.77;73.12;99497.91;5064649;28;20222;-57
2022/06/05 04:08:22;;;;;;;11.93;9.63;;;;;;;23.80;73.26;99496.91;5072097;28;20226;-57
2022/06/05 04:10:49;;;;;;;11.60;10.50;;;;;;;23.77;73.37;99497.91;5072126;28;20188;-57
2022/06/05 04:13:16;;;;;;;10.77;9.70;;;;;;;23.77;73.48;99502.28;5072041;28;20190;-57
2022/06/05 04:15:43;;;;;;;13.33;10.93;;;;;;;23.65;73.72;99498.34;5071177;28;20192;-57
2022/06/05 04:18:10;;;;;;;12.13;10.97;;;;;;;23.55;74.03;99503.97;5071802;28;20245;-57
2022/06/05 04:20:39;;;;;;;11.60;10.33;;;;;;;23.46;74.67;99502.53;5071957;28;20192;-57
2022/06/05 04:23:08;;;;;;;14.75;11.25;;;;;;;23.44;74.87;99514.84;5071529;28;20445;-57
2022/06/05 04:25:36;;;;;;;12.47;10.47;;;;;;;23.28;74.91;99511.91;5072143;28;20210;-57
2022/06/05 04:28:04;;;;;;;14.47;10.17;;;;;;;23.26;75.41;99505.84;5071691;28;20638;-57
2022/06/05 04:30:31;;;;;;;11.50;10.40;;;;;;;23.29;75.46;99502.28;5071798;28;20187;-57
2022/06/05 04:32:59;;;;;;;12.47;10.73;;;;;;;23.30;75.19;99503.97;5071890;28;20184;-57
2022/06/05 04:35:25;;;;;;;12.27;10.53;;;;;;;23.28;75.54;99496.16;5072128;28;20192;-57
2022/06/05 04:37:52;;;;;;;13.30;10.53;;;;;;;23.33;75.18;99496.00;5071797;28;20191;-57
2022/06/05 04:40:19;;;;;;;11.40;10.00;;;;;;;23.37;74.86;99489.75;5071748;28;20199;-57
2022/06/05 04:42:47;;;;;;;11.37;10.27;;;;;;;23.39;74.76;99493.19;5071920;28;20671;-56
2022/06/05 04:45:14;;;;;;;13.63;10.97;;;;;;;23.38;74.00;99496.72;5072066;28;20230;-56
2022/06/05 04:47:41;;;;;;;13.37;10.60;;;;;;;23.47;73.87;99492.00;5072018;28;20187;-57
2022/06/05 04:50:09;;;;;;;12.07;10.85;;;;;;;23.55;74.06;99496.97;5071598;28;20438;-56
2022/06/05 04:52:36;;;;;;;11.97;10.80;;;;;;;23.42;73.59;99453.75;5070517;28;20605;-56
2022/06/05 04:55:03;;;;;;;10.73;9.83;;;;;;;23.75;72.42;99494.47;5071289;28;20211;-57
2022/06/05 04:57:30;;;;;;;11.27;10.13;;;;;;;23.87;71.69;99478.25;5071486;28;20203;-57
2022/06/05 04:59:58;;;;;;;17.80;10.30;;;;;;;23.91;70.12;99472.00;5071787;28;20253;-56
2022/06/05 05:02:24;;;;;;;12.03;10.67;;;;;;;23.93;70.11;99466.66;5071591;28;20200;-55
2022/06/05 05:04:51;;;;;;;12.77;10.23;;;;;;;24.09;69.79;99467.81;5071536;28;20223;-56
2022/06/05 05:07:18;;;;;;;11.30;10.23;;;;;;;24.18;68.97;99472.72;5071529;28;20195;-56
2022/06/05 05:09:45;;;;;;;14.17;10.73;;;;;;;24.36;68.84;99474.63;5053207;28;20512;-56
2022/06/05 05:12:12;;;;;;;12.17;10.53;;;;;;;24.56;68.45;99477.28;5069530;28;20613;-56
2022/06/05 05:14:39;;;;;;;11.17;10.03;;;;;;;24.67;67.89;99485.59;5067917;28;20215;-56
2022/06/05 05:17:07;;;;;;;11.27;10.07;;;;;;;24.72;67.89;99481.94;5070700;28;20195;-56
2022/06/05 05:19:34;;;;;;;11.30;10.30;;;;;;;24.92;67.50;99466.19;5070683;28;20191;-55
2022/06/05 05:22:01;;;;;;;12.70;10.27;;;;;;;24.99;65.93;99467.66;5070130;28;20222;-56
2022/06/05 05:24:28;;;;;;;10.87;9.80;;;;;;;25.15;66.18;99463.44;5069972;28;20203;-56
2022/06/05 05:26:54;;;;;;;12.03;9.93;;;;;;;25.22;65.29;99460.47;5069756;28;20213;-56
2022/06/05 05:29:21;;;;;;;11.00;9.80;;;;;;;25.35;64.63;99459.94;5070525;28;20188;-57
2022/06/05 05:31:50;;;;;;;10.73;9.05;;;;;;;25.35;62.95;99470.47;5070971;28;20522;-56
2022/06/05 05:34:18;;;;;;;12.65;9.85;;;;;;;25.49;63.67;99465.47;5070742;28;20351;-57
2022/06/05 05:36:44;;;;;;;10.40;9.50;;;;;;;25.66;62.60;99466.41;5070471;28;20188;-58
2022/06/05 05:42:08;;;;;;;10.93;9.83;;;;;;;25.84;61.65;99464.72;5070600;28;20574;-57
2022/06/05 05:44:38;;;;;;;13.83;10.07;;;;;;;25.89;61.83;99467.13;5070389;28;20774;-56
2022/06/05 05:47:07;;;;;;;10.17;9.17;;;;;;;25.75;62.89;99462.50;5070532;28;20195;-57
2022/06/05 05:49:36;;;;;;;13.33;9.93;;;;;;;25.71;62.82;99467.06;5070302;28;21010;-57
2022/06/05 05:52:03;;;;;;;10.70;9.60;;;;;;;25.74;63.62;99466.06;5065189;28;20204;-56
2022/06/05 05:54:30;;;;;;;11.30;10.30;;;;;;;25.79;63.81;99472.00;5067288;28;20433;-56
2022/06/05 05:56:57;;;;;;;14.03;9.60;;;;;;;25.80;63.31;99469.28;5070077;28;20191;-56
2022/06/05 05:59:25;;;;;;;10.47;9.50;;;;;;;25.78;63.46;99473.75;5070157;28;20265;-57
2022/06/05 06:01:51;;;;;;;10.80;9.60;;;;;;;25.63;63.70;99478.84;5069830;28;20187;-56
2022/06/05 06:04:18;;;;;;;11.03;9.90;;;;;;;25.60;63.92;99469.31;5069765;28;20212;-56
2022/06/05 06:06:49;;;;;;;20.47;9.90;;;;;;;25.61;63.93;99478.06;5070117;28;20616;-57
2022/06/05 06:09:16;;;;;;;10.10;9.10;;;;;;;25.62;62.57;99464.00;5070134;28;20262;-57
2022/06/05 06:11:43;;;;;;;10.00;9.20;;;;;;;25.67;62.87;99468.13;5070543;28;20187;-57
2022/06/05 06:14:10;;;;;;;11.00;9.93;;;;;;;25.42;63.27;99422.75;5070156;28;20188;-57
2022/06/05 06:16:36;;;;;;;10.27;9.37;;;;;;;25.91;62.91;99454.75;5069872;28;20187;-56
2022/06/05 06:19:04;;;;;;;12.43;10.30;;;;;;;26.07;63.04;99466.28;5069498;28;20437;-56
2022/06/05 06:21:31;;;;;;;10.40;9.30;;;;;;;26.25;62.32;99461.03;5070190;28;20191;-57
2022/06/05 06:23:59;;;;;;;12.80;10.37;;;;;;;26.35;61.79;99462.28;5069557;28;20714;-57
2022/06/05 06:26:26;;;;;;;10.63;9.70;;;;;;;26.26;62.01;99451.34;5069677;28;20188;-64
2022/06/05 06:28:52;;;;;;;11.40;10.30;;;;;;;26.14;61.90;99429.09;5069478;28;20202;-56
2022/06/05 06:31:19;;;;;;;15.97;10.80;;;;;;;26.37;61.83;99446.38;5068719;28;20681;-57
2022/06/05 06:33:48;;;;;;;11.13;10.03;;;;;;;26.36;60.45;99453.47;5067968;28;20693;-57
2022/06/05 06:36:16;;;;;;;11.13;10.13;;;;;;;26.42;61.40;99454.94;5069843;28;20191;-57
2022/06/05 06:38:43;;;;;;;12.15;10.93;;;;;;;26.45;61.62;99441.63;5069797;28;20449;-57
2022/06/05 06:41:14;;;;;;;11.10;9.98;;;;;;;26.66;61.07;99440.56;5073804;28;20662;-56
2022/06/05 06:43:43;;;;;;;12.37;11.03;;;;;;;26.78;61.37;99434.66;5073600;28;20245;-56
2022/06/05 06:46:10;;;;;;;15.97;11.20;;;;;;;26.90;60.55;99443.75;5073575;28;20215;-56
2022/06/05 06:48:37;;;;;;;11.55;9.70;;;;;;;27.06;60.08;99444.66;5073315;28;20194;-57
2022/06/05 06:51:05;;;;;;;10.83;9.80;;;;;;;27.10;58.85;99446.22;5073799;28;20199;-57
2022/06/05 06:53:33;;;;;;;10.15;9.20;;;;;;;27.09;58.94;99447.16;5073800;28;20195;-57
2022/06/05 06:56:00;;;;;;;13.52;10.93;;;;;;;27.25;58.88;99448.06;5073502;28;20199;-57
2022/06/05 06:58:28;;;;;;;10.77;9.73;;;;;;;27.37;57.42;99428.94;5072903;28;20195;-57
2022/06/05 07:00:55;;;;;;;14.35;9.43;;;;;;;27.59;56.69;99435.75;5072713;28;20191;-57
2022/06/05 07:03:22;;;;;;;12.07;9.48;;;;;;;27.75;55.45;99439.25;5071845;28;20767;-57
2022/06/05 07:05:49;;;;;;;12.73;10.18;;;;;;;27.86;55.57;99421.03;5065166;28;20445;-57
2022/06/05 07:08:15;;;;;;;9.88;8.95;;;;;;;28.05;55.47;99425.22;5057188;28;20232;-57
2022/06/05 07:10:42;;;;;;;11.95;9.88;;;;;;;28.17;55.23;99428.13;5052918;28;20670;-56
2022/06/05 07:13:09;;;;;;;11.10;9.70;;;;;;;28.18;54.65;99430.69;5052839;28;20192;-57
2022/06/05 07:15:37;;;;;;;10.65;9.65;;;;;;;28.30;54.91;99427.34;5052885;28;20191;-57
2022/06/05 07:18:05;;;;;;;12.95;9.30;;;;;;;28.39;54.18;99423.31;5053131;28;20196;-57
2022/06/05 07:20:33;;;;;;;11.80;9.82;;;;;;;28.48;54.18;99420.16;5052036;28;20815;-57
2022/06/05 07:23:01;;;;;;;10.73;9.52;;;;;;;28.48;54.85;99420.16;5052705;28;21134;-57
2022/06/05 07:25:28;;;;;;;10.65;9.55;;;;;;;28.61;54.07;99416.72;5052281;28;20528;-57
2022/06/05 07:27:54;;;;;;;13.93;10.60;;;;;;;28.79;54.31;99416.59;5053407;28;20201;-57
2022/06/05 07:30:21;;;;;;;11.52;10.15;;;;;;;28.91;54.00;99413.22;5052809;28;20697;-57
2022/06/05 07:32:50;;;;;;;11.32;9.93;;;;;;;28.96;54.24;99401.41;5052838;28;20256;-57
2022/06/05 07:35:18;;;;;;;10.75;9.65;;;;;;;28.95;53.17;99405.00;5052909;28;20192;-58
2022/06/05 07:37:45;;;;;;;12.38;10.55;;;;;;;28.96;54.23;99398.75;5052456;28;20879;-57
2022/06/05 07:40:14;;;;;;;13.98;9.93;;;;;;;29.05;53.89;99400.00;5052339;28;20189;-57
2022/06/05 07:42:42;;;;;;;11.33;9.63;;;;;;;29.04;53.16;99401.78;5051347;28;20439;-57
2022/06/05 07:45:13;;;;;;;13.60;9.98;;;;;;;29.17;53.58;99400.09;5051933;28;20443;-58
2022/06/05 07:47:40;;;;;;;11.23;9.77;;;;;;;29.29;52.44;99401.19;5052550;28;20188;-58
2022/06/05 07:50:10;;;;;;;14.18;9.80;;;;;;;29.42;52.46;99398.66;5016409;28;20188;-58
2022/06/05 07:55:22;;;;;;;13.55;9.90;;;;;;;29.50;52.05;99393.72;5052634;28;20281;-66
2022/06/05 07:57:48;;;;;;;11.57;8.95;;;;;;;29.58;52.54;99397.59;5052414;28;20548;-63
2022/06/05 08:00:16;;;;;;;11.55;9.52;;;;;;;29.70;51.58;99391.50;5057572;28;20581;-64
2022/06/05 08:02:42;;;;;;;12.32;8.98;;;;;;;29.67;51.33;99391.69;5072361;28;20597;-65
2022/06/05 08:05:11;;;;;;;9.05;8.15;;;;;;;29.69;51.13;99391.63;5071777;28;20211;-65
2022/06/05 08:07:38;;;;;;;12.90;9.98;;;;;;;29.66;51.51;99391.81;5071960;28;20200;-65
2022/06/05 08:10:06;;;;;;;12.18;10.13;;;;;;;29.61;51.19;99385.94;5071712;28;20234;-65
2022/06/05 08:12:35;;;;;;;12.73;9.50;;;;;;;29.68;52.18;99398.69;5072037;28;20188;-64
2022/06/05 08:15:08;;;;;;;12.02;9.90;;;;;;;29.75;51.28;99404.44;5071904;28;20196;-64
2022/06/05 08:17:36;;;;;;;10.35;9.15;;;;;;;29.61;50.93;99362.94;5071684;28;20199;-64
2022/06/05 08:20:04;;;;;;;11.75;9.55;;;;;;;29.95;50.30;99389.97;5071342;28;20568;-65
2022/06/05 08:22:32;;;;;;;18.63;9.48;;;;;;;30.07;51.14;99387.38;5072358;28;20200;-65
2022/06/05 08:24:59;;;;;;;10.98;8.98;;;;;;;30.17;50.21;99392.91;5071707;28;20207;-65
2022/06/05 08:27:28;;;;;;;13.90;9.75;;;;;;;30.19;50.61;99383.09;5069048;28;20187;-66
2022/06/05 08:29:56;;;;;;;9.90;8.95;;;;;;;30.30;49.98;99384.06;5069285;28;20653;-65
2022/06/05 08:32:24;;;;;;;11.70;9.55;;;;;;;30.34;49.72;99374.09;5068248;28;20202;-65
2022/06/05 08:34:52;;;;;;;10.27;9.20;;;;;;;30.39;50.30;99378.19;5073108;28;20191;-65
2022/06/05 08:43:13;;;;;;;11.07;9.63;;;;;;;30.59;49.53;99379.50;5069459;28;20268;-65
2022/06/05 08:45:48;;;;;;;9.88;9.07;;;;;;;30.76;49.07;99375.72;5071161;28;20590;-65
2022/06/05 08:48:21;;;;;;;13.48;9.65;;;;;;;30.67;48.38;99355.09;5071136;28;20199;-65
2022/06/05 08:50:50;;;;;;;11.70;9.23;;;;;;;30.75;48.53;99371.34;5070597;28;20255;-66
2022/06/05 08:53:22;;;;;;;10.65;8.98;;;;;;;30.88;48.12;99362.44;5065921;28;20192;-65
2022/06/05 08:55:54;;;;;;;10.10;8.65;;;;;;;30.97;48.27;99374.25;5067310;28;20258;-66
2022/06/05 08:58:29;;;;;;;10.90;9.20;;;;;;;31.07;47.93;99367.34;5066485;28;20188;-65
2022/06/05 09:01:00;;;;;;;11.68;9.73;;;;;;;31.18;46.55;99367.44;5070459;28;20191;-65
2022/06/05 09:03:32;;;;;;;13.65;9.00;;;;;;;31.24;46.70;99359.06;5070798;28;20573;-65
2022/06/05 09:06:05;;;;;;;10.50;8.90;;;;;;;31.33;46.20;99360.22;5070898;28;20618;-65
2022/06/05 09:08:35;;;;;;;11.70;9.70;;;;;;;31.39;46.18;99360.63;5070502;28;20250;-66
2022/06/05 09:11:07;;;;;;;10.25;9.35;;;;;;;31.46;46.02;99366.34;5069624;28;20446;-66
2022/06/05 09:13:43;;;;;;;9.60;8.90;;;;;;;31.60;45.60;99360.06;5070712;28;20192;-57
2022/06/05 09:16:13;;;;;;;10.48;9.52;;;;;;;31.68;44.82;99350.59;5070133;28;20719;-57
2022/06/05 09:18:47;;;;;;;12.63;8.95;;;;;;;31.42;44.60;99312.63;5070565;28;20191;-57
2022/06/05 09:21:23;;;;;;;9.43;8.18;;;;;;;31.84;43.69;99345.84;5069883;28;20562;-57
2022/06/05 09:24:01;;;;;;;9.50;8.55;;;;;;;32.00;43.05;99342.94;5069780;28;20199;-57
2022/06/05 09:26:40;;;;;;;10.48;8.60;;;;;;;32.19;42.94;99337.97;5050453;28;20231;-57
2022/06/05 09:29:23;;;;;;;8.52;7.65;;;;;;;32.29;42.56;99331.00;5050139;28;20223;-57
2022/06/05 09:32:16;;;;;;;9.73;8.82;;;;;;;32.47;42.11;99345.56;5050591;28;20196;-58
2022/06/05 09:34:51;;;;;;;11.30;7.95;;;;;;;32.50;40.82;99339.16;5050249;28;20204;-56
2022/06/05 09:37:25;;;;;;;8.77;7.72;;;;;;;32.51;39.58;99339.03;5062215;28;20202;-56
2022/06/05 09:39:57;;;;;;;8.10;7.30;;;;;;;32.40;38.66;99332.84;5054940;28;20219;-57
2022/06/05 09:42:49;;;;;;;8.60;7.70;;;;;;;32.47;38.33;99329.59;5058364;28;20207;-57
2022/06/05 09:45:30;;;;;;;8.30;7.60;;;;;;;32.66;38.25;99324.59;5059089;28;20219;-58
2022/06/05 09:48:14;;;;;;;10.57;8.00;;;;;;;32.92;37.37;99319.91;5068456;28;20207;-58
2022/06/05 09:50:42;;;;;;;9.10;7.33;;;;;;;33.04;37.11;99307.47;5066880;28;20779;-58
2022/06/05 09:53:12;;;;;;;10.48;7.35;;;;;;;33.30;36.83;99310.72;5063442;28;20199;-58
2022/06/05 09:55:53;;;;;;;9.02;6.93;;;;;;;33.22;36.38;99320.19;5069520;28;20207;-58
2022/06/05 09:58:42;;;;;;;8.30;7.47;;;;;;;33.00;36.32;99312.16;5061170;28;20201;-58
2022/06/05 10:01:25;;;;;;;8.50;7.28;;;;;;;32.93;36.85;99316.28;5064685;28;20259;-58
2022/06/05 10:03:53;;;;;;;10.10;7.85;;;;;;;32.99;36.22;99306.97;5057921;28;20701;-57
2022/06/05 10:06:25;;;;;;;13.63;7.50;;;;;;;32.95;35.72;99314.34;5049235;28;20259;-57
2022/06/05 10:08:56;;;;;;;7.80;7.20;;;;;;;32.97;35.08;99307.09;5049169;28;20220;-57
2022/06/05 10:11:28;;;;;;;8.10;7.30;;;;;;;33.21;34.55;99297.19;5050579;28;20207;-58
2022/06/05 10:14:05;;;;;;;8.32;7.50;;;;;;;33.23;35.55;99300.59;5068396;28;20387;-58
2022/06/05 10:16:39;;;;;;;7.72;7.03;;;;;;;33.18;35.04;99289.44;5069474;28;20190;-58
2022/06/05 10:19:25;;;;;;;10.70;7.22;;;;;;;33.20;35.30;99290.16;5069759;28;20277;-58
2022/06/05 10:22:00;;;;;;;11.18;6.72;;;;;;;33.26;33.13;99291.50;5069371;28;20203;-59
2022/06/05 10:24:37;;;;;;;11.35;7.45;;;;;;;33.30;32.64;99276.94;5069046;28;20672;-58
2022/06/05 10:27:06;;;;;;;8.25;7.45;;;;;;;33.29;33.61;99275.28;5069141;28;20191;-58
2022/06/05 10:29:39;;;;;;;8.43;6.82;;;;;;;33.30;33.70;99274.28;5068995;28;20297;-58
2022/06/05 10:32:12;;;;;;;9.38;7.15;;;;;;;33.33;33.36;99270.53;5068744;28;20213;-58
2022/06/05 10:34:47;;;;;;;8.30;7.00;;;;;;;33.34;33.82;99269.56;5069429;28;20203;-58
2022/06/05 10:37:23;;;;;;;7.88;6.32;;;;;;;33.31;33.38;99278.66;5061840;28;20187;-58
2022/06/05 10:40:13;;;;;;;8.02;6.68;;;;;;;33.18;33.67;99275.28;5061769;28;20187;-58
2022/06/05 10:42:52;;;;;;;7.82;6.55;;;;;;;33.22;33.77;99272.25;5067590;28;20574;-58
2022/06/05 10:45:31;;;;;;;10.07;6.40;;;;;;;33.38;34.20;99263.84;5055927;28;20447;-58
2022/06/05 10:48:09;;;;;;;8.60;6.70;;;;;;;33.49;34.52;99265.63;5063654;28;20187;-58
2022/06/05 10:50:44;;;;;;;8.85;6.15;;;;;;;33.45;33.16;99264.22;5063247;28;20195;-58
2022/06/05 10:53:17;;;;;;;6.82;6.13;;;;;;;33.36;33.44;99248.97;5060674;28;20273;-58
2022/06/05 10:55:59;;;;;;;9.07;6.40;;;;;;;33.62;33.00;99251.22;5061642;28;20188;-57
2022/06/05 10:58:36;;;;;;;7.47;6.35;;;;;;;33.70;32.65;99245.28;5067668;28;20200;-58
2022/06/05 11:01:25;;;;;;;8.68;6.47;;;;;;;33.65;32.87;99239.50;5068192;28;20196;-58
2022/06/05 11:03:58;;;;;;;6.78;6.05;;;;;;;33.77;32.54;99238.44;5053914;28;20195;-58
2022/06/05 11:06:33;;;;;;;7.05;6.07;;;;;;;33.89;31.58;99244.59;5062131;28;20238;-58
2022/06/05 11:09:15;;;;;;;10.15;6.65;;;;;;;33.82;32.24;99229.09;5060837;28;20455;-58
2022/06/05 11:14:46;;;;;;;6.18;5.57;;;;;;;33.79;32.09;99228.50;5064525;28;20385;-66
2022/06/05 11:17:29;;;;;;;6.07;5.30;;;;;;;33.94;32.05;99224.56;5059458;28;20196;-65
2022/06/05 11:20:07;;;;;;;8.60;5.63;;;;;;;34.12;32.25;99225.69;5064011;28;20206;-66
2022/06/05 11:22:36;;;;;;;9.70;5.35;;;;;;;34.23;31.38;99222.13;5066051;28;20654;-65
2022/06/05 11:25:21;;;;;;;9.48;5.38;;;;;;;34.01;31.37;99219.56;5062772;28;20599;-66
2022/06/05 11:27:58;;;;;;;8.88;5.55;;;;;;;33.95;32.26;99217.41;5069632;28;20183;-65
2022/06/05 11:30:32;;;;;;;5.90;5.30;;;;;;;33.87;30.41;99228.72;5067084;28;20677;-66
2022/06/05 11:33:11;;;;;;;6.00;5.22;;;;;;;33.81;30.81;99219.44;5069828;28;20662;-65
2022/06/05 11:35:54;;;;;;;7.50;6.00;;;;;;;33.90;30.53;99217.78;5069019;28;20206;-57
2022/06/05 11:38:31;;;;;;;6.72;5.03;;;;;;;33.88;30.85;99217.06;5069109;28;20199;-57
2022/06/05 11:41:04;;;;;;;6.47;5.18;;;;;;;33.81;30.80;99218.56;5072198;28;20193;-57
2022/06/05 11:43:34;;;;;;;6.15;5.57;;;;;;;33.93;31.80;99204.19;5072803;28;20666;-57
2022/06/05 11:46:13;;;;;;;9.10;5.15;;;;;;;34.14;30.50;99214.91;5072492;28;20219;-57
2022/06/05 11:48:46;;;;;;;5.93;5.35;;;;;;;34.24;31.56;99210.47;5072488;28;20187;-57
2022/06/05 11:51:21;;;;;;;5.35;4.80;;;;;;;34.39;30.90;99220.69;5071903;28;20203;-57
2022/06/05 11:54:01;;;;;;;7.63;4.53;;;;;;;34.40;30.53;99230.38;5072133;28;20662;-58
2022/06/05 11:56:49;;;;;;;5.28;4.75;;;;;;;34.33;29.41;99215.03;5057829;28;20443;-58
2022/06/05 11:59:28;;;;;;;5.82;5.15;;;;;;;34.50;29.55;99213.59;5064635;28;20264;-66